Flight Track Log - Related Links

Times and Time Zones

All times are in EDT time to prevent confusion due to time zone crossing. See the JBU24 flight status page for this flight to view local times or setup timezone preferences in your user account.

Time Position Orientation Groundspeed Altitude Reporting Facility
EDT Latitude Longitude Course Direction KTS MPH feet Rate Location/Type
Tue 05:14:44 PM 40.5667 -73.8000 323° Northwest 204 235 3,100  Level New York TRACON
Tue 05:15:44 PM 40.5833 -73.7167 75° East 236 272 6,500 3,300 Climbing New York TRACON
Tue 05:16:00 PM 40.8487 -74.0646 311° West  Level FlightAware Approximate
Tue 05:16:44 PM 40.6167 -73.6333 62° Northeast 242 278 9,700  Level New York TRACON
Tue 05:17:00 PM 40.9006 -74.1425 311° West  Level FlightAware Approximate
Tue 05:17:50 PM 40.6667 -73.5500 52° Northeast 289 333 12,300  Level New York TRACON
Tue 05:18:00 PM 40.9556 -74.2167 316° Northwest  Level FlightAware Approximate
Tue 05:18:50 PM 40.7333 -73.5333 11° North 283 326 14,900  Level New York TRACON
Tue 05:19:00 PM 41.0120 -74.2891 316° Northwest  Level FlightAware Approximate
Tue 05:19:50 PM 40.8167 -73.5333 360° North 288 331 17,000  Level New York TRACON
Tue 05:20:00 PM 41.0648 -74.3648 323° Northwest  Level FlightAware Approximate
Tue 05:20:50 PM 40.8833 -73.6000 323° Northwest 341 392 17,000  Level New York TRACON
Tue 05:21:50 PM 40.9333 -73.7000 304° West 336 387 17,000  Level New York TRACON
Tue 05:22:50 PM 41.0000 -73.8167 307° West 336 387 17,000  Level New York TRACON
Tue 05:23:50 PM 41.0500 -73.9167 304° West 332 382 17,000  Level New York TRACON
Tue 05:24:50 PM 41.0833 -74.0167 294° West 333 383 17,000  Level New York TRACON
Tue 05:27:06 PM 41.1475 -74.2650 289° West 336 387 17,000  Level New York Center
Tue 05:28:07 PM 41.1811 -74.3906 290° West 331 381 17,000  Level New York Center
Tue 05:29:07 PM 41.2050 -74.4939 287° West 331 381 17,000 550 Level New York Center
Tue 05:30:07 PM 41.2469 -74.6122 295° West 331 381 18,100 1,525 Climbing New York Center
Tue 05:31:05 PM 41.3042 -74.7067 309° West 330 380 20,000 958 Climbing New York Center
Tue 05:32:06 PM 41.3614 -74.8011 309° West 330 380 20,000  Level New York Center
Tue 05:33:06 PM 41.4186 -74.8931 310° West 330 380 20,000  Level New York Center
Tue 05:34:06 PM 41.4778 -74.9881 310° West 330 380 20,000  Level New York Center
Tue 05:35:07 PM 41.5328 -75.0831 308° West 330 380 20,000  Level New York Center
Tue 05:36:05 PM 41.5917 -75.1783 310° West 330 380 20,000  Level New York Center
Tue 05:37:06 PM 41.6486 -75.2736 309° West 330 380 20,000  Level New York Center
Tue 05:38:06 PM 41.7053 -75.3692 308° West 330 380 20,000  Level New York Center
Tue 05:39:08 PM 41.7619 -75.4619 309° West 330 380 20,000  Level New York Center
Tue 05:40:05 PM 41.8183 -75.5606 308° West 330 380 20,000  Level New York Center
Tue 05:41:06 PM 41.8750 -75.6539 309° West 330 380 20,000  Level New York Center
Tue 05:42:07 PM 41.9314 -75.7528 307° West 330 380 20,000  Level New York Center
Tue 05:43:07 PM 41.9875 -75.8492 308° West 335 386 20,000 -99 Level New York Center
Tue 05:44:08 PM 42.0439 -75.9456 308° West 335 386 19,800 -843 Descending New York Center
Tue 05:45:08 PM 42.0981 -76.0392 308° West 335 386 18,300 -1,538 Descending New York Center
Tue 05:46:05 PM 42.1631 -76.1228 316° Northwest 330 380 16,800 -1,576 Descending New York Center
Tue 05:47:06 PM 42.2522 -76.1300 357° North 302 348 15,200 -1,426 Descending New York Center
Tue 05:48:07 PM 42.3336 -76.1228 North 302 348 13,900 -1,522 Descending New York Center
Tue 05:49:20 PM 42.4539 -76.1042 North 311 358 11,800 -1,359 Descending Boston Center
Tue 05:50:15 PM 42.5292 -76.0975 North 311 358 11,000 -569 Descending Boston Center
Tue 05:51:16 PM 42.6150 -76.0828 North 299 344 10,700 -1,134 Descending Boston Center
Tue 05:52:22 PM 42.7014 -76.0594 11° North 268 308 8,600 -1,805 Descending Boston Center
Tue 05:53:29 PM 42.7833 -76.0389 10° North 274 315 6,700 -1,594 Descending Boston Center
Tue 05:54:30 PM 42.8567 -76.0261 North 271 312 5,200 -1,438 Descending Boston Center
Tue 05:55:30 PM 42.9300 -76.0133 North 264 304 3,800 -1,388 Descending Boston Center
Tue 05:56:31 PM 43.0056 -75.9981 North 255 293 2,400 -938 Descending Boston Center
Tue 05:57:38 PM 43.0608 -76.0325 336° Northwest 200 230 1,800 -767 Descending Boston Center
Tue 05:58:44 PM 43.0967 -76.0800 316° Northwest 128 147 700 -1,000 Descending Boston Center

Login

Don't have an account? Register now (free) for customized features, flight alerts, and more!